createdAt,value
2022-08-19T00:00:11.993Z,24.88
2022-08-19T00:03:00.138Z,24.64
2022-08-19T00:05:28.414Z,25.01
2022-08-19T00:08:09.797Z,27.15
2022-08-19T00:10:38.174Z,27.99
2022-08-19T00:13:06.553Z,27.14
2022-08-19T00:15:35.036Z,26.37
2022-08-19T00:18:03.312Z,25.83
2022-08-19T00:20:31.485Z,25.44
2022-08-19T00:22:59.556Z,25.13
2022-08-19T00:25:30.159Z,24.87
2022-08-19T00:28:00.521Z,24.64
2022-08-19T00:30:29.765Z,25.01
2022-08-19T00:32:59.010Z,27.14
2022-08-19T00:35:28.522Z,28.01
2022-08-19T00:37:57.406Z,27.19
2022-08-19T00:40:26.297Z,26.39
2022-08-19T00:42:55.096Z,25.85
2022-08-19T00:45:26.946Z,25.47
2022-08-19T00:47:55.120Z,25.16
2022-08-19T00:50:24.429Z,24.89
2022-08-19T00:52:53.908Z,24.64
2022-08-19T00:55:25.581Z,25.04
2022-08-19T00:57:59.592Z,27.18
2022-08-19T01:00:29.814Z,27.87
2022-08-19T01:02:58.252Z,27.05
2022-08-19T01:05:29.951Z,26.25
2022-08-19T01:08:02.022Z,25.69
2022-08-19T01:10:36.640Z,25.32
2022-08-19T01:13:05.908Z,25.04
2022-08-19T01:15:39.647Z,24.80
2022-08-19T01:18:11.458Z,25.18
2022-08-19T01:20:41.523Z,27.29
2022-08-19T01:23:10.069Z,28.00
2022-08-19T01:25:51.436Z,27.14
2022-08-19T01:28:34.058Z,26.26
2022-08-19T01:31:07.858Z,25.66
2022-08-19T01:33:36.492Z,25.25
2022-08-19T01:36:27.809Z,24.94
2022-08-19T01:38:57.211Z,24.66
2022-08-19T01:41:25.794Z,25.04
2022-08-19T01:44:10.066Z,27.11
2022-08-19T01:46:44.803Z,27.70
2022-08-19T01:49:12.952Z,26.78
2022-08-19T01:51:41.336Z,26.00
2022-08-19T01:54:11.855Z,25.45
2022-08-19T01:56:40.030Z,25.04
2022-08-19T01:59:18.650Z,24.73
2022-08-19T02:01:46.887Z,25.11
2022-08-19T02:04:15.814Z,27.14
2022-08-19T02:06:43.989Z,27.78
2022-08-19T02:09:12.265Z,26.90
2022-08-19T02:11:40.439Z,26.06
2022-08-19T02:14:10.046Z,25.48
2022-08-19T02:16:39.484Z,25.06
2022-08-19T02:19:08.521Z,24.71
2022-08-19T02:21:37.232Z,24.96
2022-08-19T02:24:05.455Z,26.90
2022-08-19T02:26:34.808Z,27.74
2022-08-19T02:29:03.289Z,26.92
2022-08-19T02:31:31.463Z,26.08
2022-08-19T02:33:59.962Z,25.50
2022-08-19T02:36:33.447Z,25.07
2022-08-19T02:39:16.466Z,24.67
2022-08-19T02:41:45.048Z,24.94
2022-08-19T02:44:28.564Z,26.92
2022-08-19T02:47:12.628Z,27.68
2022-08-19T02:49:40.699Z,26.68
2022-08-19T02:52:09.131Z,25.85
2022-08-19T02:54:37.508Z,25.30
2022-08-19T02:57:07.372Z,24.89
2022-08-19T02:59:35.495Z,24.59
2022-08-19T03:02:04.517Z,24.94
2022-08-19T03:04:32.816Z,26.93
2022-08-19T03:07:10.924Z,27.67
2022-08-19T03:09:39.618Z,26.77
2022-08-19T03:12:08.004Z,25.97
2022-08-19T03:14:37.289Z,25.41
2022-08-19T03:17:05.871Z,24.98
2022-08-19T03:19:34.044Z,24.62
2022-08-19T03:22:02.219Z,24.89
2022-08-19T03:24:30.393Z,26.89
2022-08-19T03:26:59.698Z,27.56
2022-08-19T03:29:30.609Z,26.70
2022-08-19T03:32:06.428Z,25.88
2022-08-19T03:34:37.737Z,25.28
2022-08-19T03:37:13.409Z,24.83
2022-08-19T03:39:43.403Z,24.47
2022-08-19T03:42:38.433Z,24.93
2022-08-19T03:45:00.741Z,27.08
2022-08-19T03:47:28.914Z,27.27
2022-08-19T03:49:57.189Z,26.38
2022-08-19T03:52:25.363Z,25.65
2022-08-19T03:54:53.539Z,25.13
2022-08-19T03:57:21.915Z,24.75
2022-08-19T04:00:13.247Z,24.99
2022-08-19T04:02:58.650Z,27.01
2022-08-19T04:05:29.942Z,27.33
2022-08-19T04:08:00.415Z,26.49
2022-08-19T04:10:29.417Z,25.75
2022-08-19T04:12:57.556Z,25.25
2022-08-19T04:15:25.725Z,24.88
2022-08-19T04:17:54.414Z,24.61
2022-08-19T04:20:22.893Z,24.95
2022-08-19T04:22:51.067Z,26.88
2022-08-19T04:25:19.447Z,27.51
2022-08-19T04:27:48.132Z,26.70
2022-08-19T04:30:16.407Z,25.95
2022-08-19T04:32:44.992Z,25.42
2022-08-19T04:35:17.536Z,25.02
2022-08-19T04:37:46.152Z,24.67
2022-08-19T04:40:33.269Z,24.96
2022-08-19T04:43:02.201Z,27.15
2022-08-19T04:45:30.658Z,27.69
2022-08-19T04:48:26.660Z,26.78
2022-08-19T04:51:01.294Z,25.93
2022-08-19T04:53:37.670Z,25.39
2022-08-19T04:56:12.593Z,25.00
2022-08-19T04:58:43.838Z,24.69
2022-08-19T05:01:19.408Z,25.08
2022-08-19T05:03:47.558Z,27.16
2022-08-19T05:06:18.090Z,27.77
2022-08-19T05:08:47.164Z,26.91
2022-08-19T05:11:26.407Z,26.13
2022-08-19T05:13:55.464Z,25.55
2022-08-19T05:16:25.939Z,25.19
2022-08-19T05:19:13.263Z,24.90
2022-08-19T05:22:01.713Z,25.40
2022-08-19T05:24:30.091Z,27.65
2022-08-19T05:26:59.391Z,27.90
2022-08-19T05:29:36.249Z,27.04
2022-08-19T05:32:06.424Z,26.30
2022-08-19T05:34:34.768Z,25.82
2022-08-19T05:37:05.650Z,25.48
2022-08-19T05:39:36.160Z,25.22
2022-08-19T05:42:08.422Z,24.99
2022-08-19T05:44:40.775Z,25.42
2022-08-19T05:47:09.610Z,27.48
2022-08-19T05:49:38.404Z,28.18
2022-08-19T05:52:09.565Z,27.36
2022-08-19T05:54:42.789Z,26.59
2022-08-19T05:57:11.747Z,26.06
2022-08-19T05:59:41.650Z,25.72
2022-08-19T06:02:10.011Z,25.46
2022-08-19T06:04:38.966Z,25.24
2022-08-19T06:07:11.908Z,25.61
2022-08-19T06:09:43.699Z,27.69
2022-08-19T06:12:34.203Z,28.43
2022-08-19T06:15:11.600Z,27.55
2022-08-19T06:17:40.204Z,26.79
2022-08-19T06:20:13.067Z,26.29
2022-08-19T06:22:45.165Z,25.94
2022-08-19T06:25:15.378Z,25.68
2022-08-19T06:27:58.986Z,25.48
2022-08-19T06:30:32.286Z,25.30
2022-08-19T06:33:00.766Z,25.72
2022-08-19T06:35:30.578Z,27.83
2022-08-19T06:37:58.848Z,28.88
2022-08-19T06:40:28.257Z,28.14
2022-08-19T06:42:57.493Z,27.34
2022-08-19T06:45:34.420Z,26.78
2022-08-19T06:48:04.052Z,26.40
2022-08-19T06:50:32.218Z,26.12
2022-08-19T06:53:01.426Z,25.90
2022-08-19T06:55:33.388Z,25.71
2022-08-19T06:58:06.117Z,26.08
2022-08-19T07:00:35.015Z,28.20
2022-08-19T07:03:07.822Z,29.12
2022-08-19T07:05:45.320Z,28.35
2022-08-19T07:08:15.125Z,27.55
2022-08-19T07:10:47.538Z,27.04
2022-08-19T07:13:15.835Z,26.69
2022-08-19T07:15:44.062Z,26.44
2022-08-19T07:18:12.236Z,26.25
2022-08-19T07:20:42.198Z,26.08
2022-08-19T07:23:16.106Z,25.93
2022-08-19T07:25:45.222Z,26.44
2022-08-19T07:28:24.478Z,28.64
2022-08-19T07:30:54.408Z,29.43
2022-08-19T07:33:23.913Z,28.65
2022-08-19T07:35:56.694Z,27.89
2022-08-19T07:38:25.342Z,27.41
2022-08-19T07:40:53.631Z,27.07
2022-08-19T07:43:26.129Z,26.83
2022-08-19T07:46:03.347Z,26.63
2022-08-19T07:48:31.591Z,26.48
2022-08-19T07:51:05.705Z,26.35
2022-08-19T07:53:39.173Z,26.24
2022-08-19T07:56:08.197Z,26.81
2022-08-19T07:58:39.852Z,28.91
2022-08-19T08:01:11.023Z,29.78
2022-08-19T08:03:59.700Z,29.06
2022-08-19T08:06:47.382Z,28.27
2022-08-19T08:09:22.955Z,27.78
2022-08-19T08:11:56.505Z,27.48
2022-08-19T08:14:29.039Z,27.28
2022-08-19T08:16:58.820Z,27.11
2022-08-19T08:19:28.979Z,26.99
2022-08-19T08:21:59.158Z,26.89
2022-08-19T08:24:31.853Z,26.80
2022-08-19T08:27:02.164Z,27.31
2022-08-19T08:29:35.114Z,29.37
2022-08-19T08:32:14.865Z,29.95
2022-08-19T08:34:44.093Z,29.19
2022-08-19T08:37:12.574Z,28.61
2022-08-19T08:39:44.476Z,28.22
2022-08-19T08:42:28.790Z,27.97
2022-08-19T08:45:16.114Z,27.76
2022-08-19T08:47:49.147Z,27.61
2022-08-19T08:50:24.258Z,27.51
2022-08-19T08:52:58.451Z,27.42
2022-08-19T08:55:36.680Z,27.35
2022-08-19T08:58:11.182Z,27.30
2022-08-19T09:00:43.964Z,27.91
2022-08-19T09:03:21.661Z,30.04
2022-08-19T09:06:02.741Z,30.80
2022-08-19T09:08:46.067Z,30.06
2022-08-19T09:11:42.610Z,29.41
2022-08-19T09:14:49.677Z,28.99
2022-08-19T09:17:22.986Z,28.74
2022-08-19T09:19:54.027Z,28.61
2022-08-19T09:22:25.791Z,28.50
2022-08-19T09:24:56.465Z,28.41
2022-08-19T09:27:42.043Z,28.35
2022-08-19T09:30:27.377Z,28.29
2022-08-19T09:32:56.473Z,28.26
2022-08-19T09:35:28.307Z,28.24
2022-08-19T09:37:59.575Z,28.24
2022-08-19T09:40:29.961Z,28.23
2022-08-19T09:43:09.841Z,28.24
2022-08-19T09:45:39.665Z,28.27
2022-08-19T09:48:09.593Z,28.29
2022-08-19T09:50:51.528Z,28.33
2022-08-19T09:53:25.174Z,28.38
2022-08-19T09:55:56.688Z,28.44
2022-08-19T09:58:28.899Z,28.50
2022-08-19T10:00:59.794Z,28.55
2022-08-19T10:03:30.421Z,28.61
2022-08-19T10:06:02.536Z,28.69
2022-08-19T10:08:35.419Z,28.76
2022-08-19T10:11:27.503Z,28.85
2022-08-19T10:13:54.194Z,28.94
2022-08-19T10:16:25.915Z,29.03
2022-08-19T10:18:58.891Z,29.11
2022-08-19T10:21:32.210Z,29.20
2022-08-19T10:24:05.225Z,29.27
2022-08-19T10:26:38.819Z,29.34
2022-08-19T10:29:09.437Z,29.41
2022-08-19T10:31:59.934Z,29.47
2022-08-19T10:34:28.404Z,29.55
2022-08-19T10:37:01.060Z,29.60
2022-08-19T10:39:42.484Z,29.65
2022-08-19T10:42:14.414Z,29.70
2022-08-19T10:44:43.755Z,29.76
2022-08-19T10:47:17.766Z,29.82
2022-08-19T10:50:13.076Z,29.87
2022-08-19T10:52:48.994Z,29.93
2022-08-19T10:55:42.504Z,29.98
2022-08-19T10:58:27.365Z,30.04
2022-08-19T11:00:58.801Z,30.12
2022-08-19T11:03:30.778Z,30.18
2022-08-19T11:06:09.816Z,30.25
2022-08-19T11:08:39.875Z,30.31
2022-08-19T11:11:09.174Z,30.37
2022-08-19T11:13:40.626Z,30.45
2022-08-19T11:16:14.485Z,30.52
2022-08-19T11:18:49.519Z,30.58
2022-08-19T11:21:40.253Z,30.66
2022-08-19T11:24:16.519Z,30.72
2022-08-19T11:26:46.069Z,30.78
2022-08-19T11:29:14.746Z,30.82
2022-08-19T11:31:45.717Z,30.88
2022-08-19T11:34:22.809Z,30.93
2022-08-19T11:36:52.639Z,31.00
2022-08-19T11:39:23.421Z,31.06
2022-08-19T11:41:52.139Z,31.13
2022-08-19T11:44:20.309Z,31.20
2022-08-19T11:46:48.892Z,31.26
2022-08-19T11:49:20.035Z,31.30
2022-08-19T11:51:49.460Z,31.35
2022-08-19T11:54:18.534Z,31.40
2022-08-19T11:56:47.454Z,31.45
2022-08-19T11:59:15.905Z,31.47
2022-08-19T12:01:44.796Z,31.52
2022-08-19T12:04:13.034Z,31.57
2022-08-19T12:06:42.887Z,31.61
2022-08-19T12:09:11.915Z,31.65
2022-08-19T12:11:41.625Z,31.67
2022-08-19T12:14:15.227Z,31.68
2022-08-19T12:16:51.312Z,31.70
2022-08-19T12:19:22.147Z,31.72
2022-08-19T12:21:51.674Z,31.72
2022-08-19T12:24:24.407Z,31.72
2022-08-19T12:26:54.098Z,31.72
2022-08-19T12:29:30.890Z,31.71
2022-08-19T12:32:01.899Z,31.71
2022-08-19T12:34:31.962Z,31.72
2022-08-19T12:37:06.029Z,31.72
2022-08-19T12:39:40.081Z,31.73
2022-08-19T12:42:09.903Z,31.75
2022-08-19T12:44:40.671Z,31.75
2022-08-19T12:47:13.484Z,31.76
2022-08-19T12:49:54.113Z,31.76
2022-08-19T12:52:28.549Z,31.77
2022-08-19T12:54:58.335Z,31.77
2022-08-19T12:57:32.295Z,31.76
2022-08-19T13:00:14.765Z,31.76
2022-08-19T13:02:47.877Z,31.75
2022-08-19T13:05:24.143Z,31.74
2022-08-19T13:07:57.128Z,31.72
2022-08-19T13:10:30.217Z,31.71
2022-08-19T13:13:00.746Z,31.70
2022-08-19T13:15:32.344Z,31.70
2022-08-19T13:18:00.578Z,31.71
2022-08-19T13:20:29.443Z,31.72
2022-08-19T13:22:58.664Z,31.73
2022-08-19T13:25:27.910Z,31.75
2022-08-19T13:27:56.447Z,31.75
2022-08-19T13:30:43.567Z,31.75
2022-08-19T13:33:11.996Z,31.76
2022-08-19T13:35:44.447Z,31.78
2022-08-19T13:38:13.867Z,31.80
2022-08-19T13:40:42.529Z,31.79
2022-08-19T13:43:17.766Z,31.78
2022-08-19T13:45:56.728Z,31.79
2022-08-19T13:48:28.017Z,31.79
2022-08-19T13:50:57.161Z,31.80
2022-08-19T13:53:25.905Z,31.81
2022-08-19T13:55:55.209Z,31.81
2022-08-19T13:58:24.001Z,31.81
2022-08-19T14:00:52.434Z,31.80
2022-08-19T14:03:21.058Z,31.81
2022-08-19T14:05:49.233Z,31.81
2022-08-19T14:08:18.440Z,31.81
2022-08-19T14:10:47.458Z,31.81
2022-08-19T14:13:18.671Z,31.83
2022-08-19T14:15:47.355Z,31.82
2022-08-19T14:18:17.067Z,31.81
2022-08-19T14:20:45.752Z,31.80
2022-08-19T14:23:14.889Z,31.80
2022-08-19T14:25:43.802Z,31.79
2022-08-19T14:28:11.895Z,31.78
2022-08-19T14:30:40.368Z,31.77
2022-08-19T14:33:09.653Z,31.75
2022-08-19T14:35:38.424Z,31.74
2022-08-19T14:38:15.669Z,31.73
2022-08-19T14:40:44.148Z,31.72
2022-08-19T14:43:12.604Z,31.70
2022-08-19T14:45:41.179Z,31.68
2022-08-19T14:48:18.994Z,31.66
2022-08-19T14:50:48.052Z,31.64
2022-08-19T14:53:17.650Z,31.62
2022-08-19T14:55:47.527Z,31.61
2022-08-19T14:58:29.754Z,31.59
2022-08-19T15:01:00.092Z,31.58
2022-08-19T15:03:30.849Z,31.56
2022-08-19T15:06:03.060Z,31.53
2022-08-19T15:08:35.059Z,31.51
2022-08-19T15:11:04.117Z,31.50
2022-08-19T15:13:35.568Z,31.48
2022-08-19T15:16:17.776Z,31.46
2022-08-19T15:18:50.894Z,31.43
2022-08-19T15:21:26.753Z,31.41
2022-08-19T15:23:58.781Z,31.40
2022-08-19T15:26:29.310Z,31.39
2022-08-19T15:28:57.483Z,31.38
2022-08-19T15:31:28.679Z,31.38
2022-08-19T15:34:01.130Z,31.39
2022-08-19T15:39:17.622Z,31.37
2022-08-19T15:41:46.677Z,31.35
2022-08-19T15:44:18.989Z,31.33
2022-08-19T15:46:48.698Z,31.35
2022-08-19T15:49:19.126Z,31.38
2022-08-19T15:51:49.655Z,31.38
2022-08-19T15:54:21.924Z,31.38
2022-08-19T15:57:10.169Z,31.41
2022-08-19T16:00:01.566Z,31.41
2022-08-19T16:02:53.528Z,31.37
2022-08-19T16:05:45.133Z,31.32
2022-08-19T16:08:13.546Z,31.27
2022-08-19T16:10:42.298Z,31.22
2022-08-19T16:13:11.132Z,31.22
2022-08-19T16:15:41.697Z,31.22
2022-08-19T16:18:09.734Z,31.22
2022-08-19T16:20:38.401Z,31.20
2022-08-19T16:23:06.626Z,31.18
2022-08-19T16:25:34.701Z,31.15
2022-08-19T16:28:06.599Z,31.10
2022-08-19T16:30:39.792Z,31.02
2022-08-19T16:33:08.990Z,30.95
2022-08-19T16:35:37.898Z,30.87
2022-08-19T16:38:07.392Z,30.78
2022-08-19T16:40:37.396Z,30.70
2022-08-19T16:43:05.880Z,30.61
2022-08-19T16:45:34.051Z,30.52
2022-08-19T16:48:02.327Z,30.42
2022-08-19T16:50:48.308Z,30.33
2022-08-19T16:53:20.224Z,30.24
2022-08-19T16:55:53.782Z,30.16
2022-08-19T16:58:29.432Z,30.09
2022-08-19T17:01:03.455Z,30.01
2022-08-19T17:03:36.289Z,29.93
2022-08-19T17:06:20.295Z,29.85
2022-08-19T17:08:52.233Z,29.78
2022-08-19T17:11:22.658Z,29.71
2022-08-19T17:13:52.017Z,29.65
2022-08-19T17:16:24.948Z,29.58
2022-08-19T17:18:55.784Z,29.51
2022-08-19T17:21:28.417Z,29.46
2022-08-19T17:23:57.434Z,29.40
2022-08-19T17:26:26.573Z,29.34
2022-08-19T17:28:57.284Z,29.28
2022-08-19T17:31:28.263Z,29.22
2022-08-19T17:33:59.162Z,29.16
2022-08-19T17:36:29.821Z,29.09
2022-08-19T17:39:00.940Z,29.03
2022-08-19T17:41:30.853Z,28.97
2022-08-19T17:43:59.027Z,28.91
2022-08-19T17:46:27.744Z,28.83
2022-08-19T17:48:57.667Z,28.77
2022-08-19T17:51:40.652Z,28.71
2022-08-19T17:54:14.661Z,28.65
2022-08-19T17:56:43.870Z,28.60
2022-08-19T17:59:14.133Z,28.55
2022-08-19T18:01:53.112Z,28.50
2022-08-19T18:04:25.798Z,28.45
2022-08-19T18:06:55.636Z,28.40
2022-08-19T18:09:41.468Z,28.35
2022-08-19T18:12:14.230Z,28.31
2022-08-19T18:14:42.965Z,28.27
2022-08-19T18:17:15.433Z,28.22
2022-08-19T18:19:44.258Z,28.19
2022-08-19T18:22:23.660Z,28.15
2022-08-19T18:24:52.249Z,28.11
2022-08-19T18:27:20.421Z,28.07
2022-08-19T18:29:48.796Z,28.04
2022-08-19T18:32:23.770Z,28.00
2022-08-19T18:34:53.851Z,27.96
2022-08-19T18:37:22.553Z,27.92
2022-08-19T18:40:09.277Z,27.88
2022-08-19T18:43:03.997Z,27.82
2022-08-19T18:45:51.267Z,27.77
2022-08-19T18:48:38.221Z,27.72
2022-08-19T18:51:07.167Z,27.67
2022-08-19T18:53:38.824Z,27.62
2022-08-19T18:56:10.377Z,27.58
2022-08-19T18:58:39.372Z,27.54
2022-08-19T19:01:19.459Z,27.50
2022-08-19T19:03:53.640Z,27.46
2022-08-19T19:06:26.964Z,27.42
2022-08-19T19:08:58.226Z,27.38
2022-08-19T19:11:37.555Z,27.35
2022-08-19T19:14:19.128Z,27.33
2022-08-19T19:17:02.328Z,27.30
2022-08-19T19:19:34.480Z,27.27
2022-08-19T19:22:04.514Z,27.26
2022-08-19T19:24:34.123Z,27.23
2022-08-19T19:27:07.107Z,27.19
2022-08-19T19:29:36.815Z,27.15
2022-08-19T19:32:21.487Z,27.12
2022-08-19T19:34:50.166Z,27.08
2022-08-19T19:37:19.407Z,27.04
2022-08-19T19:39:48.397Z,27.02
2022-08-19T19:42:21.651Z,26.98
2022-08-19T19:44:55.968Z,26.95
2022-08-19T19:47:24.685Z,26.92
2022-08-19T19:50:13.191Z,26.89
2022-08-19T19:52:41.955Z,26.86
2022-08-19T19:55:12.011Z,26.83
2022-08-19T19:57:40.493Z,26.81
2022-08-19T20:00:10.239Z,26.79
2022-08-19T20:02:38.341Z,26.76
2022-08-19T20:05:06.664Z,26.75
2022-08-19T20:08:01.120Z,26.73
2022-08-19T20:10:29.199Z,26.73
2022-08-19T20:12:57.443Z,26.72
2022-08-19T20:15:25.644Z,26.71
2022-08-19T20:17:53.866Z,26.70
2022-08-19T20:20:22.120Z,26.68
2022-08-19T20:22:50.139Z,26.64
2022-08-19T20:25:22.079Z,26.60
2022-08-19T20:27:50.944Z,26.56
2022-08-19T20:30:21.864Z,26.52
2022-08-19T20:32:51.294Z,26.48
2022-08-19T20:35:21.387Z,26.44
2022-08-19T20:37:52.875Z,26.41
2022-08-19T20:40:24.241Z,26.37
2022-08-19T20:42:52.299Z,26.34
2022-08-19T20:45:32.831Z,26.31
2022-08-19T20:48:03.184Z,26.29
2022-08-19T20:50:35.066Z,26.28
2022-08-19T20:53:29.479Z,26.27
2022-08-19T20:55:59.752Z,26.26
2022-08-19T20:58:28.958Z,26.25
2022-08-19T21:01:00.166Z,26.23
2022-08-19T21:03:30.880Z,26.19
2022-08-19T21:05:58.934Z,26.15
2022-08-19T21:08:27.975Z,26.10
2022-08-19T21:10:58.228Z,26.06
2022-08-19T21:13:26.847Z,26.04
2022-08-19T21:15:55.461Z,26.03
2022-08-19T21:18:27.026Z,26.01
2022-08-19T21:20:55.913Z,26.00
2022-08-19T21:23:28.181Z,26.00
2022-08-19T21:25:58.335Z,25.98
2022-08-19T21:28:34.362Z,25.95
2022-08-19T21:31:06.348Z,25.93
2022-08-19T21:33:34.447Z,25.90
2022-08-19T21:36:03.313Z,25.87
2022-08-19T21:38:31.767Z,25.84
2022-08-19T21:41:04.286Z,25.81
2022-08-19T21:43:36.961Z,25.78
2022-08-19T21:46:07.179Z,25.77
2022-08-19T21:48:35.896Z,25.74
2022-08-19T21:51:04.363Z,25.70
2022-08-19T21:53:34.284Z,25.66
2022-08-19T21:56:09.059Z,25.63
2022-08-19T21:58:37.741Z,25.60
2022-08-19T22:01:08.260Z,25.56
2022-08-19T22:03:38.287Z,25.53
2022-08-19T22:06:07.385Z,25.50
2022-08-19T22:08:36.392Z,25.48
2022-08-19T22:11:05.063Z,25.47
2022-08-19T22:13:40.019Z,25.46
2022-08-19T22:16:10.019Z,25.44
2022-08-19T22:18:38.189Z,25.42
2022-08-19T22:21:11.262Z,25.39
2022-08-19T22:23:47.231Z,25.36
2022-08-19T22:26:17.557Z,25.31
2022-08-19T22:28:45.831Z,25.77
2022-08-19T22:31:15.849Z,28.01
2022-08-19T22:33:44.227Z,29.09
2022-08-19T22:36:12.345Z,28.40
2022-08-19T22:38:40.416Z,27.64
2022-08-19T22:41:08.545Z,27.14
2022-08-19T22:43:37.683Z,26.81
2022-08-19T22:46:17.031Z,26.56
2022-08-19T22:48:47.562Z,26.34
2022-08-19T22:51:34.698Z,26.18
2022-08-19T22:54:03.169Z,26.00
2022-08-19T22:56:31.245Z,25.86
2022-08-19T22:58:59.349Z,25.73
2022-08-19T23:01:30.607Z,25.62
2022-08-19T23:04:00.108Z,25.51
2022-08-19T23:06:34.451Z,25.41
2022-08-19T23:09:07.171Z,25.81
2022-08-19T23:11:41.662Z,27.97
2022-08-19T23:14:12.740Z,29.00
2022-08-19T23:16:41.716Z,28.26
2022-08-19T23:19:10.511Z,27.52
2022-08-19T23:21:40.613Z,27.03
2022-08-19T23:24:09.529Z,26.68
2022-08-19T23:26:38.447Z,26.42
2022-08-19T23:29:25.275Z,26.22
2022-08-19T23:31:53.305Z,26.02
2022-08-19T23:34:21.409Z,25.87
2022-08-19T23:36:50.741Z,25.73
2022-08-19T23:39:19.509Z,25.58
2022-08-19T23:41:47.719Z,25.43
2022-08-19T23:44:15.792Z,25.31
2022-08-19T23:46:55.281Z,25.66
2022-08-19T23:49:25.778Z,27.94
2022-08-19T23:51:55.742Z,28.83
2022-08-19T23:54:32.038Z,28.06
2022-08-19T23:57:13.981Z,27.23
2022-08-19T23:59:45.763Z,26.74
